sensor_id;sensor_type;location;lat;lon;timestamp;P1;durP1;ratioP1;P2;durP2;ratioP2
50319;SDS011;36226;53.464;9.852;2023-04-28T00:00:16;10.80;;;6.55;;
50319;SDS011;36226;53.464;9.852;2023-04-28T00:02:42;13.63;;;6.53;;
50319;SDS011;36226;53.464;9.852;2023-04-28T00:05:07;12.07;;;7.00;;
50319;SDS011;36226;53.464;9.852;2023-04-28T00:07:33;13.40;;;6.82;;
50319;SDS011;36226;53.464;9.852;2023-04-28T00:09:58;15.20;;;6.75;;
50319;SDS011;36226;53.464;9.852;2023-04-28T00:12:24;13.90;;;7.22;;
50319;SDS011;36226;53.464;9.852;2023-04-28T00:14:49;11.60;;;6.30;;
50319;SDS011;36226;53.464;9.852;2023-04-28T00:17:15;38.55;;;20.05;;
50319;SDS011;36226;53.464;9.852;2023-04-28T00:19:41;13.15;;;7.90;;
50319;SDS011;36226;53.464;9.852;2023-04-28T00:22:06;13.27;;;6.90;;
50319;SDS011;36226;53.464;9.852;2023-04-28T00:24:31;13.30;;;7.00;;
50319;SDS011;36226;53.464;9.852;2023-04-28T00:26:57;17.38;;;7.13;;
50319;SDS011;36226;53.464;9.852;2023-04-28T00:29:23;12.93;;;7.22;;
50319;SDS011;36226;53.464;9.852;2023-04-28T00:31:48;12.48;;;7.25;;
50319;SDS011;36226;53.464;9.852;2023-04-28T00:34:14;15.40;;;6.80;;
50319;SDS011;36226;53.464;9.852;2023-04-28T00:36:39;15.05;;;7.55;;
50319;SDS011;36226;53.464;9.852;2023-04-28T00:39:05;15.52;;;8.23;;
50319;SDS011;36226;53.464;9.852;2023-04-28T00:41:30;13.77;;;7.38;;
50319;SDS011;36226;53.464;9.852;2023-04-28T00:43:58;11.57;;;6.95;;
50319;SDS011;36226;53.464;9.852;2023-04-28T00:46:24;14.63;;;6.95;;
50319;SDS011;36226;53.464;9.852;2023-04-28T00:48:52;13.18;;;7.20;;
50319;SDS011;36226;53.464;9.852;2023-04-28T00:51:17;11.10;;;6.50;;
50319;SDS011;36226;53.464;9.852;2023-04-28T00:53:43;12.27;;;6.78;;
50319;SDS011;36226;53.464;9.852;2023-04-28T00:56:08;13.52;;;7.28;;
50319;SDS011;36226;53.464;9.852;2023-04-28T00:58:34;10.88;;;6.35;;
50319;SDS011;36226;53.464;9.852;2023-04-28T01:01:03;10.98;;;6.20;;
50319;SDS011;36226;53.464;9.852;2023-04-28T01:03:29;11.60;;;6.63;;
50319;SDS011;36226;53.464;9.852;2023-04-28T01:05:55;15.05;;;7.00;;
50319;SDS011;36226;53.464;9.852;2023-04-28T01:08:22;13.70;;;7.38;;
50319;SDS011;36226;53.464;9.852;2023-04-28T01:10:48;12.70;;;7.03;;
50319;SDS011;36226;53.464;9.852;2023-04-28T01:13:13;14.13;;;6.90;;
50319;SDS011;36226;53.464;9.852;2023-04-28T01:15:39;12.32;;;6.57;;
50319;SDS011;36226;53.464;9.852;2023-04-28T01:18:04;11.77;;;6.47;;
50319;SDS011;36226;53.464;9.852;2023-04-28T01:20:30;12.70;;;6.88;;
50319;SDS011;36226;53.464;9.852;2023-04-28T01:22:55;14.50;;;6.47;;
50319;SDS011;36226;53.464;9.852;2023-04-28T01:25:20;11.95;;;6.43;;
50319;SDS011;36226;53.464;9.852;2023-04-28T01:27:46;11.93;;;7.55;;
50319;SDS011;36226;53.464;9.852;2023-04-28T01:30:11;10.23;;;6.55;;
50319;SDS011;36226;53.464;9.852;2023-04-28T01:32:37;12.65;;;7.30;;
50319;SDS011;36226;53.464;9.852;2023-04-28T01:35:05;15.82;;;7.00;;
50319;SDS011;36226;53.464;9.852;2023-04-28T01:37:30;13.30;;;7.00;;
50319;SDS011;36226;53.464;9.852;2023-04-28T01:39:56;14.30;;;7.35;;
50319;SDS011;36226;53.464;9.852;2023-04-28T01:42:21;13.18;;;6.78;;
50319;SDS011;36226;53.464;9.852;2023-04-28T01:44:46;15.20;;;7.07;;
50319;SDS011;36226;53.464;9.852;2023-04-28T01:47:12;12.93;;;7.35;;
50319;SDS011;36226;53.464;9.852;2023-04-28T01:49:37;13.80;;;6.65;;
50319;SDS011;36226;53.464;9.852;2023-04-28T01:52:02;12.07;;;6.88;;
50319;SDS011;36226;53.464;9.852;2023-04-28T01:54:28;13.57;;;7.53;;
50319;SDS011;36226;53.464;9.852;2023-04-28T01:56:53;13.50;;;7.28;;
50319;SDS011;36226;53.464;9.852;2023-04-28T01:59:19;15.90;;;7.82;;
50319;SDS011;36226;53.464;9.852;2023-04-28T02:01:44;14.10;;;7.10;;
50319;SDS011;36226;53.464;9.852;2023-04-28T02:04:10;12.55;;;7.55;;
50319;SDS011;36226;53.464;9.852;2023-04-28T02:06:35;12.98;;;6.53;;
50319;SDS011;36226;53.464;9.852;2023-04-28T02:09:01;14.65;;;7.00;;
50319;SDS011;36226;53.464;9.852;2023-04-28T02:11:26;14.05;;;7.47;;
50319;SDS011;36226;53.464;9.852;2023-04-28T02:13:51;13.43;;;6.72;;
50319;SDS011;36226;53.464;9.852;2023-04-28T02:16:17;12.10;;;6.82;;
50319;SDS011;36226;53.464;9.852;2023-04-28T02:18:42;15.25;;;7.13;;
50319;SDS011;36226;53.464;9.852;2023-04-28T02:21:11;11.98;;;6.70;;
50319;SDS011;36226;53.464;9.852;2023-04-28T02:23:36;13.30;;;6.18;;
50319;SDS011;36226;53.464;9.852;2023-04-28T02:26:02;13.55;;;7.18;;
50319;SDS011;36226;53.464;9.852;2023-04-28T02:28:28;15.75;;;6.90;;
50319;SDS011;36226;53.464;9.852;2023-04-28T02:31:15;12.82;;;6.63;;
50319;SDS011;36226;53.464;9.852;2023-04-28T02:36:06;28.30;;;12.30;;
50319;SDS011;36226;53.464;9.852;2023-04-28T02:38:32;17.88;;;9.63;;
50319;SDS011;36226;53.464;9.852;2023-04-28T02:40:59;20.95;;;9.13;;
50319;SDS011;36226;53.464;9.852;2023-04-28T02:43:29;13.90;;;7.40;;
50319;SDS011;36226;53.464;9.852;2023-04-28T02:45:58;13.52;;;7.85;;
50319;SDS011;36226;53.464;9.852;2023-04-28T02:48:23;14.45;;;6.72;;
50319;SDS011;36226;53.464;9.852;2023-04-28T02:50:49;13.00;;;7.25;;
50319;SDS011;36226;53.464;9.852;2023-04-28T02:53:15;17.15;;;7.75;;
50319;SDS011;36226;53.464;9.852;2023-04-28T02:55:40;11.90;;;7.05;;
50319;SDS011;36226;53.464;9.852;2023-04-28T02:58:06;14.35;;;7.40;;
50319;SDS011;36226;53.464;9.852;2023-04-28T03:00:31;12.88;;;7.00;;
50319;SDS011;36226;53.464;9.852;2023-04-28T03:02:56;12.68;;;7.00;;
50319;SDS011;36226;53.464;9.852;2023-04-28T03:05:22;14.25;;;7.68;;
50319;SDS011;36226;53.464;9.852;2023-04-28T03:07:47;16.20;;;6.88;;
50319;SDS011;36226;53.464;9.852;2023-04-28T03:10:13;14.20;;;6.80;;
50319;SDS011;36226;53.464;9.852;2023-04-28T03:12:38;12.98;;;7.00;;
50319;SDS011;36226;53.464;9.852;2023-04-28T03:15:03;13.85;;;7.25;;
50319;SDS011;36226;53.464;9.852;2023-04-28T03:17:32;16.73;;;6.88;;
50319;SDS011;36226;53.464;9.852;2023-04-28T03:19:58;14.43;;;7.03;;
50319;SDS011;36226;53.464;9.852;2023-04-28T03:22:23;12.70;;;7.30;;
50319;SDS011;36226;53.464;9.852;2023-04-28T03:24:48;15.52;;;7.07;;
50319;SDS011;36226;53.464;9.852;2023-04-28T03:27:14;11.18;;;6.13;;
50319;SDS011;36226;53.464;9.852;2023-04-28T03:29:39;13.68;;;7.00;;
50319;SDS011;36226;53.464;9.852;2023-04-28T03:32:05;12.38;;;6.43;;
50319;SDS011;36226;53.464;9.852;2023-04-28T03:34:30;12.85;;;7.15;;
50319;SDS011;36226;53.464;9.852;2023-04-28T03:36:56;14.65;;;6.97;;
50319;SDS011;36226;53.464;9.852;2023-04-28T03:39:21;14.00;;;7.03;;
50319;SDS011;36226;53.464;9.852;2023-04-28T03:41:46;10.43;;;6.07;;
50319;SDS011;36226;53.464;9.852;2023-04-28T03:44:12;14.40;;;6.53;;
50319;SDS011;36226;53.464;9.852;2023-04-28T03:46:37;16.60;;;7.60;;
50319;SDS011;36226;53.464;9.852;2023-04-28T03:49:05;13.38;;;7.43;;
50319;SDS011;36226;53.464;9.852;2023-04-28T03:51:30;15.10;;;7.70;;
50319;SDS011;36226;53.464;9.852;2023-04-28T03:53:57;12.50;;;6.75;;
50319;SDS011;36226;53.464;9.852;2023-04-28T03:56:22;12.32;;;6.68;;
50319;SDS011;36226;53.464;9.852;2023-04-28T03:58:47;15.13;;;7.32;;
50319;SDS011;36226;53.464;9.852;2023-04-28T04:01:13;14.15;;;6.93;;
50319;SDS011;36226;53.464;9.852;2023-04-28T04:03:41;14.52;;;6.97;;
50319;SDS011;36226;53.464;9.852;2023-04-28T04:06:06;12.82;;;6.90;;
50319;SDS011;36226;53.464;9.852;2023-04-28T04:08:32;13.75;;;7.28;;
50319;SDS011;36226;53.464;9.852;2023-04-28T04:10:57;12.27;;;6.63;;
50319;SDS011;36226;53.464;9.852;2023-04-28T04:13:23;11.68;;;6.88;;
50319;SDS011;36226;53.464;9.852;2023-04-28T04:15:48;13.25;;;6.90;;
50319;SDS011;36226;53.464;9.852;2023-04-28T04:18:14;11.15;;;6.55;;
50319;SDS011;36226;53.464;9.852;2023-04-28T04:20:40;14.10;;;7.05;;
50319;SDS011;36226;53.464;9.852;2023-04-28T04:23:05;13.15;;;6.72;;
50319;SDS011;36226;53.464;9.852;2023-04-28T04:25:30;14.68;;;7.03;;
50319;SDS011;36226;53.464;9.852;2023-04-28T04:27:56;12.82;;;7.00;;
50319;SDS011;36226;53.464;9.852;2023-04-28T04:30:22;12.40;;;7.72;;
50319;SDS011;36226;53.464;9.852;2023-04-28T04:32:47;12.70;;;6.97;;
50319;SDS011;36226;53.464;9.852;2023-04-28T04:35:13;12.52;;;6.78;;
50319;SDS011;36226;53.464;9.852;2023-04-28T04:37:38;14.55;;;6.18;;
50319;SDS011;36226;53.464;9.852;2023-04-28T04:40:04;10.93;;;6.15;;
50319;SDS011;36226;53.464;9.852;2023-04-28T04:42:30;12.50;;;6.80;;
50319;SDS011;36226;53.464;9.852;2023-04-28T04:44:55;12.38;;;6.70;;
50319;SDS011;36226;53.464;9.852;2023-04-28T04:47:21;16.10;;;7.00;;
50319;SDS011;36226;53.464;9.852;2023-04-28T04:49:47;11.18;;;6.15;;
50319;SDS011;36226;53.464;9.852;2023-04-28T04:52:13;10.02;;;6.18;;
50319;SDS011;36226;53.464;9.852;2023-04-28T04:54:39;14.05;;;6.53;;
50319;SDS011;36226;53.464;9.852;2023-04-28T04:57:04;13.27;;;5.88;;
50319;SDS011;36226;53.464;9.852;2023-04-28T04:59:30;8.70;;;5.50;;
50319;SDS011;36226;53.464;9.852;2023-04-28T05:01:56;12.45;;;6.03;;
50319;SDS011;36226;53.464;9.852;2023-04-28T05:04:21;9.70;;;5.57;;
50319;SDS011;36226;53.464;9.852;2023-04-28T05:06:46;12.10;;;5.97;;
50319;SDS011;36226;53.464;9.852;2023-04-28T05:09:12;11.48;;;5.63;;
50319;SDS011;36226;53.464;9.852;2023-04-28T05:11:37;12.35;;;5.70;;
50319;SDS011;36226;53.464;9.852;2023-04-28T05:14:02;12.27;;;5.13;;
50319;SDS011;36226;53.464;9.852;2023-04-28T05:16:28;12.93;;;5.72;;
50319;SDS011;36226;53.464;9.852;2023-04-28T05:18:53;10.45;;;5.60;;
50319;SDS011;36226;53.464;9.852;2023-04-28T05:21:18;11.13;;;5.85;;
50319;SDS011;36226;53.464;9.852;2023-04-28T05:23:44;9.70;;;5.05;;
50319;SDS011;36226;53.464;9.852;2023-04-28T05:26:09;13.85;;;5.53;;
50319;SDS011;36226;53.464;9.852;2023-04-28T05:28:35;8.30;;;4.97;;
50319;SDS011;36226;53.464;9.852;2023-04-28T05:31:00;8.75;;;5.18;;
50319;SDS011;36226;53.464;9.852;2023-04-28T05:33:25;9.20;;;5.00;;
50319;SDS011;36226;53.464;9.852;2023-04-28T05:35:51;8.07;;;4.78;;
50319;SDS011;36226;53.464;9.852;2023-04-28T05:38:16;8.68;;;4.30;;
50319;SDS011;36226;53.464;9.852;2023-04-28T05:40:42;10.15;;;4.70;;
50319;SDS011;36226;53.464;9.852;2023-04-28T05:43:07;9.15;;;4.05;;
50319;SDS011;36226;53.464;9.852;2023-04-28T05:45:32;6.90;;;4.30;;
50319;SDS011;36226;53.464;9.852;2023-04-28T05:47:58;6.82;;;4.15;;
50319;SDS011;36226;53.464;9.852;2023-04-28T05:50:24;8.05;;;3.92;;
50319;SDS011;36226;53.464;9.852;2023-04-28T05:52:50;10.85;;;4.75;;
50319;SDS011;36226;53.464;9.852;2023-04-28T05:55:15;7.38;;;3.83;;
50319;SDS011;36226;53.464;9.852;2023-04-28T05:57:40;6.20;;;4.20;;
50319;SDS011;36226;53.464;9.852;2023-04-28T06:00:06;11.13;;;4.95;;
50319;SDS011;36226;53.464;9.852;2023-04-28T06:02:32;9.13;;;4.32;;
50319;SDS011;36226;53.464;9.852;2023-04-28T06:04:57;8.23;;;4.18;;
50319;SDS011;36226;53.464;9.852;2023-04-28T06:07:22;9.32;;;4.60;;
50319;SDS011;36226;53.464;9.852;2023-04-28T06:09:48;6.53;;;4.30;;
50319;SDS011;36226;53.464;9.852;2023-04-28T06:12:13;7.35;;;4.55;;
50319;SDS011;36226;53.464;9.852;2023-04-28T06:14:39;8.65;;;4.50;;
50319;SDS011;36226;53.464;9.852;2023-04-28T06:17:04;8.43;;;4.50;;
50319;SDS011;36226;53.464;9.852;2023-04-28T06:19:30;5.90;;;3.90;;
50319;SDS011;36226;53.464;9.852;2023-04-28T06:21:55;8.60;;;4.00;;
50319;SDS011;36226;53.464;9.852;2023-04-28T06:24:20;6.93;;;4.10;;
50319;SDS011;36226;53.464;9.852;2023-04-28T06:26:46;6.65;;;4.25;;
50319;SDS011;36226;53.464;9.852;2023-04-28T06:29:11;8.00;;;3.83;;
50319;SDS011;36226;53.464;9.852;2023-04-28T06:31:37;5.85;;;3.67;;
50319;SDS011;36226;53.464;9.852;2023-04-28T06:34:02;6.13;;;3.83;;
50319;SDS011;36226;53.464;9.852;2023-04-28T06:36:27;5.75;;;3.40;;
50319;SDS011;36226;53.464;9.852;2023-04-28T06:38:53;8.70;;;3.45;;
50319;SDS011;36226;53.464;9.852;2023-04-28T06:41:18;6.00;;;3.50;;
50319;SDS011;36226;53.464;9.852;2023-04-28T06:43:43;7.65;;;3.53;;
50319;SDS011;36226;53.464;9.852;2023-04-28T06:46:09;7.38;;;3.15;;
50319;SDS011;36226;53.464;9.852;2023-04-28T06:48:37;8.82;;;3.65;;
50319;SDS011;36226;53.464;9.852;2023-04-28T06:51:03;4.10;;;2.58;;
50319;SDS011;36226;53.464;9.852;2023-04-28T06:53:28;7.32;;;3.13;;
50319;SDS011;36226;53.464;9.852;2023-04-28T06:55:54;6.10;;;3.15;;
50319;SDS011;36226;53.464;9.852;2023-04-28T06:58:20;8.02;;;3.47;;
50319;SDS011;36226;53.464;9.852;2023-04-28T07:00:45;5.88;;;3.15;;
50319;SDS011;36226;53.464;9.852;2023-04-28T07:03:11;8.13;;;3.50;;
50319;SDS011;36226;53.464;9.852;2023-04-28T07:05:36;5.45;;;3.25;;
50319;SDS011;36226;53.464;9.852;2023-04-28T07:08:02;5.55;;;3.10;;
50319;SDS011;36226;53.464;9.852;2023-04-28T07:10:27;5.53;;;3.03;;
50319;SDS011;36226;53.464;9.852;2023-04-28T07:12:53;6.82;;;3.17;;
50319;SDS011;36226;53.464;9.852;2023-04-28T07:15:18;4.82;;;3.05;;
50319;SDS011;36226;53.464;9.852;2023-04-28T07:17:43;4.15;;;3.00;;
50319;SDS011;36226;53.464;9.852;2023-04-28T07:20:09;7.75;;;3.00;;
50319;SDS011;36226;53.464;9.852;2023-04-28T07:22:35;8.98;;;2.83;;
50319;SDS011;36226;53.464;9.852;2023-04-28T07:25:00;5.43;;;3.10;;
50319;SDS011;36226;53.464;9.852;2023-04-28T07:27:26;6.25;;;2.88;;
50319;SDS011;36226;53.464;9.852;2023-04-28T07:29:51;6.05;;;2.90;;
50319;SDS011;36226;53.464;9.852;2023-04-28T07:32:17;6.07;;;3.00;;
50319;SDS011;36226;53.464;9.852;2023-04-28T07:34:42;6.97;;;3.00;;
50319;SDS011;36226;53.464;9.852;2023-04-28T07:37:11;6.75;;;2.92;;
50319;SDS011;36226;53.464;9.852;2023-04-28T07:39:39;5.78;;;3.20;;
50319;SDS011;36226;53.464;9.852;2023-04-28T07:42:05;7.32;;;3.45;;
50319;SDS011;36226;53.464;9.852;2023-04-28T07:44:31;6.25;;;3.70;;
50319;SDS011;36226;53.464;9.852;2023-04-28T07:46:57;5.95;;;3.28;;
50319;SDS011;36226;53.464;9.852;2023-04-28T07:49:23;4.20;;;2.80;;
50319;SDS011;36226;53.464;9.852;2023-04-28T07:51:49;4.40;;;3.10;;
50319;SDS011;36226;53.464;9.852;2023-04-28T07:54:17;5.65;;;2.92;;
50319;SDS011;36226;53.464;9.852;2023-04-28T07:56:42;6.32;;;3.25;;
50319;SDS011;36226;53.464;9.852;2023-04-28T07:59:08;5.65;;;3.30;;
50319;SDS011;36226;53.464;9.852;2023-04-28T08:01:33;8.55;;;3.30;;
50319;SDS011;36226;53.464;9.852;2023-04-28T08:03:59;6.07;;;3.13;;
50319;SDS011;36226;53.464;9.852;2023-04-28T08:06:25;4.78;;;2.83;;
50319;SDS011;36226;53.464;9.852;2023-04-28T08:08:50;4.60;;;2.75;;
50319;SDS011;36226;53.464;9.852;2023-04-28T08:11:15;7.63;;;3.20;;
50319;SDS011;36226;53.464;9.852;2023-04-28T08:13:41;4.88;;;2.92;;
50319;SDS011;36226;53.464;9.852;2023-04-28T08:16:09;6.47;;;3.05;;
50319;SDS011;36226;53.464;9.852;2023-04-28T08:18:35;9.43;;;3.60;;
50319;SDS011;36226;53.464;9.852;2023-04-28T08:21:00;5.25;;;2.85;;
50319;SDS011;36226;53.464;9.852;2023-04-28T08:23:26;7.80;;;3.15;;
50319;SDS011;36226;53.464;9.852;2023-04-28T08:25:53;9.95;;;2.92;;
50319;SDS011;36226;53.464;9.852;2023-04-28T08:28:19;5.85;;;2.95;;
50319;SDS011;36226;53.464;9.852;2023-04-28T08:30:44;4.30;;;2.90;;
50319;SDS011;36226;53.464;9.852;2023-04-28T08:33:10;5.78;;;3.35;;
50319;SDS011;36226;53.464;9.852;2023-04-28T08:35:35;6.60;;;3.13;;
50319;SDS011;36226;53.464;9.852;2023-04-28T08:38:00;7.35;;;2.95;;
50319;SDS011;36226;53.464;9.852;2023-04-28T08:40:26;6.78;;;3.08;;
50319;SDS011;36226;53.464;9.852;2023-04-28T08:42:54;11.90;;;3.05;;
50319;SDS011;36226;53.464;9.852;2023-04-28T08:45:19;6.60;;;3.30;;
50319;SDS011;36226;53.464;9.852;2023-04-28T08:47:46;4.00;;;2.58;;
50319;SDS011;36226;53.464;9.852;2023-04-28T08:50:13;8.20;;;2.92;;
50319;SDS011;36226;53.464;9.852;2023-04-28T08:52:40;7.75;;;3.53;;
50319;SDS011;36226;53.464;9.852;2023-04-28T08:55:15;6.38;;;3.60;;
50319;SDS011;36226;53.464;9.852;2023-04-28T08:57:42;6.18;;;3.20;;
50319;SDS011;36226;53.464;9.852;2023-04-28T09:00:09;7.85;;;3.50;;
50319;SDS011;36226;53.464;9.852;2023-04-28T09:02:35;4.65;;;3.13;;
50319;SDS011;36226;53.464;9.852;2023-04-28T09:05:11;4.75;;;2.85;;
50319;SDS011;36226;53.464;9.852;2023-04-28T09:07:37;5.47;;;3.38;;
50319;SDS011;36226;53.464;9.852;2023-04-28T09:10:16;10.52;;;3.20;;
50319;SDS011;36226;53.464;9.852;2023-04-28T09:12:44;4.03;;;3.13;;
50319;SDS011;36226;53.464;9.852;2023-04-28T09:15:09;7.22;;;3.05;;
50319;SDS011;36226;53.464;9.852;2023-04-28T09:17:48;6.82;;;3.22;;
50319;SDS011;36226;53.464;9.852;2023-04-28T09:20:21;6.68;;;3.35;;
50319;SDS011;36226;53.464;9.852;2023-04-28T09:22:47;4.40;;;3.10;;
50319;SDS011;36226;53.464;9.852;2023-04-28T09:25:13;6.20;;;2.85;;
50319;SDS011;36226;53.464;9.852;2023-04-28T09:27:40;8.15;;;3.10;;
50319;SDS011;36226;53.464;9.852;2023-04-28T09:30:05;5.28;;;3.13;;
50319;SDS011;36226;53.464;9.852;2023-04-28T09:32:31;8.45;;;3.35;;
50319;SDS011;36226;53.464;9.852;2023-04-28T09:34:56;7.32;;;3.50;;
50319;SDS011;36226;53.464;9.852;2023-04-28T09:37:23;4.80;;;3.03;;
50319;SDS011;36226;53.464;9.852;2023-04-28T09:39:52;6.43;;;3.13;;
50319;SDS011;36226;53.464;9.852;2023-04-28T09:42:35;6.55;;;3.45;;
50319;SDS011;36226;53.464;9.852;2023-04-28T09:45:02;5.38;;;3.20;;
50319;SDS011;36226;53.464;9.852;2023-04-28T09:47:29;7.65;;;3.10;;
50319;SDS011;36226;53.464;9.852;2023-04-28T09:49:58;4.93;;;3.05;;
50319;SDS011;36226;53.464;9.852;2023-04-28T09:52:24;7.18;;;2.83;;
50319;SDS011;36226;53.464;9.852;2023-04-28T09:54:50;4.78;;;3.20;;
50319;SDS011;36226;53.464;9.852;2023-04-28T09:57:17;6.82;;;3.03;;
50319;SDS011;36226;53.464;9.852;2023-04-28T09:59:45;6.82;;;3.38;;
50319;SDS011;36226;53.464;9.852;2023-04-28T10:02:13;7.15;;;3.20;;
50319;SDS011;36226;53.464;9.852;2023-04-28T10:04:40;5.22;;;3.45;;
50319;SDS011;36226;53.464;9.852;2023-04-28T10:07:07;5.05;;;2.70;;
50319;SDS011;36226;53.464;9.852;2023-04-28T10:09:32;8.30;;;3.50;;
50319;SDS011;36226;53.464;9.852;2023-04-28T10:11:59;5.63;;;3.15;;
50319;SDS011;36226;53.464;9.852;2023-04-28T10:14:24;6.30;;;3.08;;
50319;SDS011;36226;53.464;9.852;2023-04-28T10:16:50;6.10;;;3.25;;
50319;SDS011;36226;53.464;9.852;2023-04-28T10:19:16;4.75;;;2.90;;
50319;SDS011;36226;53.464;9.852;2023-04-28T10:21:43;6.03;;;3.45;;
50319;SDS011;36226;53.464;9.852;2023-04-28T10:24:17;6.18;;;3.28;;
50319;SDS011;36226;53.464;9.852;2023-04-28T10:29:29;7.32;;;3.65;;
50319;SDS011;36226;53.464;9.852;2023-04-28T10:34:40;6.25;;;3.00;;
50319;SDS011;36226;53.464;9.852;2023-04-28T10:37:06;8.30;;;3.97;;
50319;SDS011;36226;53.464;9.852;2023-04-28T10:39:31;6.70;;;3.42;;
50319;SDS011;36226;53.464;9.852;2023-04-28T10:41:57;5.10;;;3.03;;
50319;SDS011;36226;53.464;9.852;2023-04-28T10:47:06;7.25;;;3.60;;
50319;SDS011;36226;53.464;9.852;2023-04-28T11:00:42;12.43;;;4.18;;
50319;SDS011;36226;53.464;9.852;2023-04-28T11:03:17;7.32;;;4.00;;
50319;SDS011;36226;53.464;9.852;2023-04-28T11:06:21;6.57;;;3.75;;
50319;SDS011;36226;53.464;9.852;2023-04-28T11:16:53;10.07;;;4.30;;
50319;SDS011;36226;53.464;9.852;2023-04-28T11:19:26;7.65;;;3.75;;
50319;SDS011;36226;53.464;9.852;2023-04-28T11:21:56;9.35;;;3.72;;
50319;SDS011;36226;53.464;9.852;2023-04-28T11:24:25;7.82;;;3.95;;
50319;SDS011;36226;53.464;9.852;2023-04-28T11:26:52;8.10;;;4.15;;
50319;SDS011;36226;53.464;9.852;2023-04-28T11:29:21;7.60;;;3.22;;
50319;SDS011;36226;53.464;9.852;2023-04-28T11:31:58;9.02;;;4.00;;
50319;SDS011;36226;53.464;9.852;2023-04-28T11:34:23;6.07;;;3.30;;
50319;SDS011;36226;53.464;9.852;2023-04-28T11:36:49;7.32;;;3.28;;
50319;SDS011;36226;53.464;9.852;2023-04-28T11:39:14;7.72;;;3.85;;
50319;SDS011;36226;53.464;9.852;2023-04-28T11:41:40;8.02;;;3.70;;
50319;SDS011;36226;53.464;9.852;2023-04-28T11:46:43;7.57;;;3.55;;
50319;SDS011;36226;53.464;9.852;2023-04-28T11:49:15;6.85;;;3.88;;
50319;SDS011;36226;53.464;9.852;2023-04-28T11:51:41;6.78;;;3.55;;
50319;SDS011;36226;53.464;9.852;2023-04-28T11:54:09;7.28;;;3.63;;
50319;SDS011;36226;53.464;9.852;2023-04-28T11:56:39;6.03;;;3.42;;
50319;SDS011;36226;53.464;9.852;2023-04-28T11:59:06;6.68;;;3.92;;
50319;SDS011;36226;53.464;9.852;2023-04-28T12:04:10;8.02;;;3.50;;
50319;SDS011;36226;53.464;9.852;2023-04-28T12:06:37;6.90;;;3.40;;
50319;SDS011;36226;53.464;9.852;2023-04-28T12:09:13;5.18;;;3.75;;
50319;SDS011;36226;53.464;9.852;2023-04-28T12:11:50;9.52;;;3.83;;
50319;SDS011;36226;53.464;9.852;2023-04-28T12:14:19;6.20;;;3.50;;
50319;SDS011;36226;53.464;9.852;2023-04-28T12:16:45;7.15;;;3.33;;
50319;SDS011;36226;53.464;9.852;2023-04-28T12:19:12;6.15;;;3.50;;
50319;SDS011;36226;53.464;9.852;2023-04-28T12:21:39;7.22;;;3.30;;
50319;SDS011;36226;53.464;9.852;2023-04-28T12:24:15;7.90;;;3.50;;
50319;SDS011;36226;53.464;9.852;2023-04-28T12:26:41;6.85;;;3.70;;
50319;SDS011;36226;53.464;9.852;2023-04-28T12:29:07;12.73;;;3.83;;
50319;SDS011;36226;53.464;9.852;2023-04-28T12:31:50;9.80;;;4.25;;
50319;SDS011;36226;53.464;9.852;2023-04-28T12:34:17;6.55;;;3.50;;
50319;SDS011;36226;53.464;9.852;2023-04-28T12:36:42;6.03;;;3.45;;
50319;SDS011;36226;53.464;9.852;2023-04-28T12:39:13;6.43;;;3.30;;
50319;SDS011;36226;53.464;9.852;2023-04-28T12:41:40;7.15;;;3.40;;
50319;SDS011;36226;53.464;9.852;2023-04-28T12:44:06;7.45;;;3.28;;
50319;SDS011;36226;53.464;9.852;2023-04-28T12:46:31;7.05;;;3.45;;
50319;SDS011;36226;53.464;9.852;2023-04-28T12:48:56;7.78;;;3.72;;
50319;SDS011;36226;53.464;9.852;2023-04-28T12:51:22;6.65;;;3.63;;
50319;SDS011;36226;53.464;9.852;2023-04-28T12:53:47;8.77;;;3.55;;
50319;SDS011;36226;53.464;9.852;2023-04-28T12:56:13;7.53;;;3.55;;
50319;SDS011;36226;53.464;9.852;2023-04-28T12:58:38;5.20;;;3.50;;
50319;SDS011;36226;53.464;9.852;2023-04-28T13:01:03;6.53;;;3.78;;
50319;SDS011;36226;53.464;9.852;2023-04-28T13:03:29;8.98;;;3.50;;
50319;SDS011;36226;53.464;9.852;2023-04-28T13:05:54;5.60;;;3.42;;
50319;SDS011;36226;53.464;9.852;2023-04-28T13:08:20;8.75;;;3.38;;
50319;SDS011;36226;53.464;9.852;2023-04-28T13:10:45;8.23;;;3.42;;
50319;SDS011;36226;53.464;9.852;2023-04-28T13:13:11;5.38;;;3.00;;
50319;SDS011;36226;53.464;9.852;2023-04-28T13:15:36;5.72;;;3.40;;
50319;SDS011;36226;53.464;9.852;2023-04-28T13:18:01;7.78;;;3.85;;
50319;SDS011;36226;53.464;9.852;2023-04-28T13:20:27;7.10;;;3.60;;
50319;SDS011;36226;53.464;9.852;2023-04-28T13:22:53;7.60;;;3.72;;
50319;SDS011;36226;53.464;9.852;2023-04-28T13:25:18;5.75;;;3.33;;
50319;SDS011;36226;53.464;9.852;2023-04-28T13:27:43;8.10;;;3.83;;
50319;SDS011;36226;53.464;9.852;2023-04-28T13:30:09;5.95;;;3.85;;
50319;SDS011;36226;53.464;9.852;2023-04-28T13:32:35;9.05;;;3.97;;
50319;SDS011;36226;53.464;9.852;2023-04-28T13:35:00;9.55;;;4.38;;
50319;SDS011;36226;53.464;9.852;2023-04-28T13:37:26;6.05;;;3.95;;
50319;SDS011;36226;53.464;9.852;2023-04-28T13:39:51;12.60;;;3.97;;
50319;SDS011;36226;53.464;9.852;2023-04-28T13:42:17;9.48;;;4.25;;
50319;SDS011;36226;53.464;9.852;2023-04-28T13:44:42;6.78;;;4.10;;
50319;SDS011;36226;53.464;9.852;2023-04-28T13:47:08;6.47;;;4.00;;
50319;SDS011;36226;53.464;9.852;2023-04-28T13:49:34;8.32;;;3.88;;
50319;SDS011;36226;53.464;9.852;2023-04-28T13:52:01;8.32;;;4.00;;
50319;SDS011;36226;53.464;9.852;2023-04-28T13:54:27;7.30;;;4.25;;
50319;SDS011;36226;53.464;9.852;2023-04-28T13:56:53;7.63;;;4.13;;
50319;SDS011;36226;53.464;9.852;2023-04-28T13:59:19;7.43;;;4.10;;
50319;SDS011;36226;53.464;9.852;2023-04-28T14:01:44;8.23;;;4.20;;
50319;SDS011;36226;53.464;9.852;2023-04-28T14:04:10;9.20;;;3.80;;
50319;SDS011;36226;53.464;9.852;2023-04-28T14:06:35;6.72;;;4.00;;
50319;SDS011;36226;53.464;9.852;2023-04-28T14:09:01;12.20;;;4.45;;
50319;SDS011;36226;53.464;9.852;2023-04-28T14:11:27;11.20;;;4.32;;
50319;SDS011;36226;53.464;9.852;2023-04-28T14:13:52;7.22;;;3.80;;
50319;SDS011;36226;53.464;9.852;2023-04-28T14:16:18;9.00;;;4.22;;
50319;SDS011;36226;53.464;9.852;2023-04-28T14:18:43;6.75;;;3.90;;
50319;SDS011;36226;53.464;9.852;2023-04-28T14:21:09;6.30;;;3.85;;
50319;SDS011;36226;53.464;9.852;2023-04-28T14:23:34;7.63;;;4.10;;
50319;SDS011;36226;53.464;9.852;2023-04-28T14:25:59;7.15;;;4.47;;
50319;SDS011;36226;53.464;9.852;2023-04-28T14:28:25;7.85;;;4.30;;
50319;SDS011;36226;53.464;9.852;2023-04-28T14:30:52;12.02;;;5.13;;
50319;SDS011;36226;53.464;9.852;2023-04-28T14:33:18;6.68;;;4.35;;
50319;SDS011;36226;53.464;9.852;2023-04-28T14:35:43;6.38;;;4.93;;
50319;SDS011;36226;53.464;9.852;2023-04-28T14:38:08;7.32;;;4.28;;
50319;SDS011;36226;53.464;9.852;2023-04-28T14:40:34;8.13;;;4.25;;
50319;SDS011;36226;53.464;9.852;2023-04-28T14:42:59;7.60;;;4.10;;
50319;SDS011;36226;53.464;9.852;2023-04-28T14:45:25;8.43;;;4.28;;
50319;SDS011;36226;53.464;9.852;2023-04-28T14:47:50;7.82;;;3.88;;
50319;SDS011;36226;53.464;9.852;2023-04-28T14:50:16;7.75;;;4.10;;
50319;SDS011;36226;53.464;9.852;2023-04-28T14:52:42;9.60;;;4.95;;
50319;SDS011;36226;53.464;9.852;2023-04-28T14:55:07;7.25;;;4.50;;
50319;SDS011;36226;53.464;9.852;2023-04-28T14:57:33;7.63;;;4.68;;
50319;SDS011;36226;53.464;9.852;2023-04-28T14:59:59;8.23;;;4.60;;
50319;SDS011;36226;53.464;9.852;2023-04-28T15:02:24;7.90;;;4.55;;
50319;SDS011;36226;53.464;9.852;2023-04-28T15:04:53;8.90;;;4.10;;
50319;SDS011;36226;53.464;9.852;2023-04-28T15:07:22;9.10;;;4.68;;
50319;SDS011;36226;53.464;9.852;2023-04-28T15:09:50;12.43;;;5.13;;
50319;SDS011;36226;53.464;9.852;2023-04-28T15:12:15;9.00;;;4.80;;